CFOXX CAZ5-CYKA
Flight info
| Callsign | CFOXX |
|---|---|
| Flight time | N/A |
| Altitude | 5000 |
| Route | VFR |
| Aircraft | C208/L-SDF/C |
Departure
| Time | N/A |
|---|---|
| Airport | Cache Creek-Ashcroft Regional Airport (CAZ5) |
Arrival
| Time | 2026-04-15 14:52 |
|---|---|
| Airport | Kamloops John Moose Fulton Field Regional Airport (CYKA) |
| Time | Latitude | Longitude | Altitude | Speed | Heading |
|---|---|---|---|---|---|
| 2026-04-15 14:52 | 50.70566 | -120.43738 | 1133 ft | 0 kts | 60° |
| 2026-04-15 14:53 | 50.70572 | -120.43730 | 1136 ft | 5 kts | 42° |
| 2026-04-15 14:53 | 50.70535 | -120.43674 | 1133 ft | 12 kts | 157° |
| 2026-04-15 14:53 | 50.70435 | -120.43603 | 1133 ft | 18 kts | 155° |
| 2026-04-15 14:54 | 50.70337 | -120.43534 | 1136 ft | 12 kts | 155° |
| 2026-04-15 14:54 | 50.70276 | -120.43469 | 1134 ft | 13 kts | 114° |
| 2026-04-15 14:54 | 50.70249 | -120.43314 | 1136 ft | 13 kts | 115° |
| 2026-04-15 14:54 | 50.70189 | -120.43225 | 1135 ft | 15 kts | 147° |
| 2026-04-15 14:55 | 50.70092 | -120.43201 | 1136 ft | 14 kts | 201° |
| 2026-04-15 14:55 | 50.70079 | -120.43360 | 1131 ft | 20 kts | 283° |
| 2026-04-15 14:55 | 50.70127 | -120.43681 | 1135 ft | 46 kts | 283° |
| 2026-04-15 14:55 | 50.70228 | -120.44356 | 1137 ft | 79 kts | 282° |
| 2026-04-15 14:56 | 50.70364 | -120.45289 | 1190 ft | 93 kts | 282° |
| 2026-04-15 14:56 | 50.70476 | -120.46079 | 1332 ft | 90 kts | 282° |
| 2026-04-15 14:56 | 50.70612 | -120.47006 | 1554 ft | 86 kts | 282° |
| 2026-04-15 14:56 | 50.70411 | -120.47775 | 1752 ft | 83 kts | 201° |
| 2026-04-15 14:57 | 50.69856 | -120.47497 | 1845 ft | 94 kts | 148° |
| 2026-04-15 14:57 | 50.69303 | -120.46857 | 1935 ft | 100 kts | 143° |
| 2026-04-15 14:57 | 50.68759 | -120.46164 | 2074 ft | 102 kts | 141° |
| 2026-04-15 14:57 | 50.68206 | -120.45447 | 2195 ft | 104 kts | 141° |
| 2026-04-15 14:58 | 50.67644 | -120.44726 | 2330 ft | 104 kts | 141° |
| 2026-04-15 14:58 | 50.67108 | -120.43954 | 2518 ft | 105 kts | 129° |
| 2026-04-15 14:58 | 50.66742 | -120.42965 | 2734 ft | 105 kts | 111° |
| 2026-04-15 14:58 | 50.66481 | -120.41897 | 3064 ft | 104 kts | 108° |
| 2026-04-15 14:59 | 50.66164 | -120.40881 | 3214 ft | 104 kts | 143° |
| 2026-04-15 14:59 | 50.65522 | -120.40446 | 3379 ft | 99 kts | 167° |
| 2026-04-15 14:59 | 50.64867 | -120.40195 | 3520 ft | 94 kts | 170° |
| 2026-04-15 14:59 | 50.64231 | -120.39989 | 3685 ft | 94 kts | 169° |
| 2026-04-15 15:00 | 50.63593 | -120.39760 | 3847 ft | 98 kts | 168° |
| 2026-04-15 15:00 | 50.62891 | -120.39754 | 3988 ft | 106 kts | 194° |
| 2026-04-15 15:00 | 50.62126 | -120.39959 | 4153 ft | 117 kts | 185° |
| 2026-04-15 15:00 | 50.61271 | -120.39921 | 4289 ft | 129 kts | 174° |
| 2026-04-15 15:01 | 50.60340 | -120.39648 | 4309 ft | 143 kts | 167° |
| 2026-04-15 15:01 | 50.59344 | -120.39222 | 4305 ft | 153 kts | 164° |
| 2026-04-15 15:01 | 50.58303 | -120.38715 | 4313 ft | 160 kts | 163° |
| 2026-04-15 15:01 | 50.57224 | -120.38185 | 4309 ft | 165 kts | 163° |
| 2026-04-15 15:02 | 50.56147 | -120.37649 | 4284 ft | 159 kts | 162° |
| 2026-04-15 15:02 | 50.55117 | -120.37124 | 4289 ft | 153 kts | 161° |
| 2026-04-15 15:02 | 50.54111 | -120.36606 | 4303 ft | 152 kts | 161° |
| 2026-04-15 15:02 | 50.53106 | -120.36101 | 4296 ft | 151 kts | 162° |
| 2026-04-15 15:03 | 50.52129 | -120.35614 | 4442 ft | 143 kts | 162° |
| 2026-04-15 15:03 | 50.51196 | -120.35145 | 4488 ft | 139 kts | 163° |
| 2026-04-15 15:03 | 50.50284 | -120.34688 | 4481 ft | 136 kts | 162° |
| 2026-04-15 15:03 | 50.49381 | -120.34232 | 4502 ft | 135 kts | 162° |
| 2026-04-15 15:04 | 50.48488 | -120.33783 | 4498 ft | 135 kts | 162° |
| 2026-04-15 15:04 | 50.47593 | -120.33333 | 4499 ft | 135 kts | 163° |
| 2026-04-15 15:04 | 50.46695 | -120.32883 | 4508 ft | 136 kts | 163° |
| 2026-04-15 15:04 | 50.45795 | -120.32431 | 4499 ft | 136 kts | 163° |
| 2026-04-15 15:05 | 50.44911 | -120.31986 | 4491 ft | 134 kts | 162° |
| 2026-04-15 15:05 | 50.44077 | -120.31572 | 4600 ft | 119 kts | 162° |
| 2026-04-15 15:05 | 50.43307 | -120.31189 | 4616 ft | 114 kts | 162° |
| 2026-04-15 15:05 | 50.42545 | -120.30796 | 4509 ft | 118 kts | 163° |
| 2026-04-15 15:06 | 50.40926 | -120.29987 | 4417 ft | 126 kts | 163° |
| 2026-04-15 15:06 | 50.40079 | -120.29569 | 4367 ft | 129 kts | 163° |
| 2026-04-15 15:06 | 50.39217 | -120.29140 | 4293 ft | 131 kts | 162° |
| 2026-04-15 15:07 | 50.38376 | -120.28716 | 4407 ft | 120 kts | 163° |
| 2026-04-15 15:07 | 50.37589 | -120.28306 | 4524 ft | 121 kts | 163° |
| 2026-04-15 15:07 | 50.36764 | -120.27891 | 4587 ft | 129 kts | 164° |
| 2026-04-15 15:07 | 50.35882 | -120.27460 | 4605 ft | 137 kts | 163° |
| 2026-04-15 15:08 | 50.34962 | -120.27005 | 4703 ft | 137 kts | 163° |
| 2026-04-15 15:08 | 50.34068 | -120.26554 | 4871 ft | 133 kts | 163° |
| 2026-04-15 15:08 | 50.33192 | -120.26109 | 4979 ft | 134 kts | 163° |
| 2026-04-15 15:08 | 50.32291 | -120.25661 | 5066 ft | 134 kts | 165° |
| 2026-04-15 15:09 | 50.31417 | -120.25224 | 5201 ft | 134 kts | 163° |
| 2026-04-15 15:09 | 50.30464 | -120.24730 | 5096 ft | 146 kts | 162° |
| 2026-04-15 15:09 | 50.29534 | -120.24176 | 5250 ft | 142 kts | 159° |
| 2026-04-15 15:09 | 50.28628 | -120.23536 | 5267 ft | 144 kts | 155° |
| 2026-04-15 15:10 | 50.27738 | -120.22791 | 5276 ft | 146 kts | 151° |
| 2026-04-15 15:10 | 50.26881 | -120.21940 | 5217 ft | 146 kts | 147° |
| 2026-04-15 15:10 | 50.26053 | -120.21029 | 5139 ft | 145 kts | 144° |
| 2026-04-15 15:10 | 50.25256 | -120.20069 | 5078 ft | 143 kts | 142° |
| 2026-04-15 15:11 | 50.24505 | -120.19104 | 5047 ft | 141 kts | 139° |
| 2026-04-15 15:11 | 50.23787 | -120.18042 | 4932 ft | 144 kts | 136° |
| 2026-04-15 15:11 | 50.23050 | -120.16973 | 4854 ft | 144 kts | 143° |
| 2026-04-15 15:11 | 50.22240 | -120.16107 | 4742 ft | 139 kts | 149° |
| 2026-04-15 15:12 | 50.21368 | -120.15529 | 4548 ft | 137 kts | 167° |
| 2026-04-15 15:12 | 50.20449 | -120.15499 | 4474 ft | 128 kts | 202° |
| 2026-04-15 15:12 | 50.19775 | -120.16296 | 4381 ft | 122 kts | 239° |
| 2026-04-15 15:12 | 50.19481 | -120.17529 | 4290 ft | 121 kts | 258° |
| 2026-04-15 15:13 | 50.19329 | -120.18740 | 4288 ft | 106 kts | 257° |
| 2026-04-15 15:13 | 50.18981 | -120.19691 | 4201 ft | 108 kts | 221° |
| 2026-04-15 15:13 | 50.18233 | -120.20027 | 3972 ft | 110 kts | 197° |
| 2026-04-15 15:13 | 50.17517 | -120.20115 | 3868 ft | 102 kts | 173° |
| 2026-04-15 15:14 | 50.16989 | -120.19382 | 3767 ft | 104 kts | 118° |
| 2026-04-15 15:14 | 50.16816 | -120.18326 | 3763 ft | 102 kts | 85° |
| 2026-04-15 15:14 | 50.16958 | -120.17223 | 3747 ft | 104 kts | 65° |
| 2026-04-15 15:14 | 50.17240 | -120.16195 | 3766 ft | 102 kts | 57° |
| 2026-04-15 15:15 | 50.17580 | -120.15197 | 3731 ft | 106 kts | 69° |
| 2026-04-15 15:15 | 50.17519 | -120.14081 | 3706 ft | 107 kts | 114° |
| 2026-04-15 15:15 | 50.17056 | -120.13236 | 3647 ft | 98 kts | 158° |
| 2026-04-15 15:15 | 50.16430 | -120.13188 | 3466 ft | 88 kts | 217° |
| 2026-04-15 15:16 | 50.16136 | -120.13918 | 3376 ft | 77 kts | 264° |
| 2026-04-15 15:16 | 50.16189 | -120.14734 | 3219 ft | 73 kts | 279° |
| 2026-04-15 15:16 | 50.16291 | -120.15460 | 3102 ft | 65 kts | 281° |
| 2026-04-15 15:16 | 50.16395 | -120.16153 | 2946 ft | 64 kts | 281° |
| 2026-04-15 15:17 | 50.16482 | -120.16713 | 2940 ft | 41 kts | 285° |
| 2026-04-15 15:17 | 50.16530 | -120.17025 | 2939 ft | 19 kts | 283° |
| 2026-04-15 15:17 | 50.16546 | -120.17154 | 2938 ft | 7 kts | 281° |
| 2026-04-15 15:17 | 50.16544 | -120.17108 | 2939 ft | 11 kts | 109° |
| 2026-04-15 15:18 | 50.16516 | -120.16933 | 2938 ft | 21 kts | 103° |
| 2026-04-15 15:18 | 50.16485 | -120.16744 | 2940 ft | 15 kts | 103° |
| 2026-04-15 15:18 | 50.16461 | -120.16575 | 2941 ft | 17 kts | 104° |
| 2026-04-15 15:18 | 50.16431 | -120.16403 | 2939 ft | 14 kts | 103° |
| 2026-04-15 15:19 | 50.16412 | -120.16275 | 2939 ft | 11 kts | 104° |
| 2026-04-15 15:19 | 50.16377 | -120.16200 | 2934 ft | 6 kts | 159° |
| 2026-04-15 15:19 | 50.16367 | -120.16174 | 2934 ft | 0 kts | 98° |